createdAt,value
2022-11-17T00:01:02.134Z,88
2022-11-17T00:02:18.255Z,87.4
2022-11-17T00:03:35.360Z,87.8
2022-11-17T00:04:52.465Z,88.1
2022-11-17T00:06:09.570Z,87.9
2022-11-17T00:07:26.675Z,88
2022-11-17T00:08:43.779Z,88.3
2022-11-17T00:10:00.884Z,88.3
2022-11-17T00:11:17.010Z,88.2
2022-11-17T00:12:33.131Z,88.4
2022-11-17T00:13:50.236Z,88.4
2022-11-17T00:15:06.362Z,88.6
2022-11-17T00:16:22.483Z,88.5
2022-11-17T00:17:39.587Z,88.4
2022-11-17T00:18:56.692Z,88.5
2022-11-17T00:20:13.797Z,88.5
2022-11-17T00:21:30.902Z,88.8
2022-11-17T00:22:48.007Z,89.1
2022-11-17T00:24:05.112Z,89.2
2022-11-17T00:25:22.216Z,89.5
2022-11-17T00:26:39.321Z,89.6
2022-11-17T00:27:56.426Z,89.7
2022-11-17T00:29:13.530Z,89.8
2022-11-17T00:30:30.635Z,90
2022-11-17T00:31:47.740Z,90.1
2022-11-17T00:33:03.861Z,90.3
2022-11-17T00:34:20.965Z,89.9
2022-11-17T00:35:38.070Z,90.2
2022-11-17T00:36:55.175Z,90.2
2022-11-17T00:38:12.279Z,90.5
2022-11-17T00:39:29.384Z,90.5
2022-11-17T00:40:46.489Z,90.6
2022-11-17T00:42:02.615Z,90.4
2022-11-17T00:43:18.735Z,90.3
2022-11-17T00:44:34.861Z,90.5
2022-11-17T00:45:50.982Z,90.4
2022-11-17T00:47:08.087Z,90.2
2022-11-17T00:48:25.192Z,90.3
2022-11-17T00:49:42.296Z,90.4
2022-11-17T00:50:59.401Z,90.1
2022-11-17T00:52:16.506Z,90
2022-11-17T00:53:33.610Z,90.1
2022-11-17T00:54:50.715Z,90
2022-11-17T00:56:07.820Z,90.1
2022-11-17T00:57:24.925Z,89.8
2022-11-17T00:58:42.029Z,89.8
2022-11-17T00:59:59.134Z,89.8
2022-11-17T01:01:16.239Z,90
2022-11-17T01:02:32.359Z,90
2022-11-17T01:03:49.464Z,90
2022-11-17T01:05:06.569Z,89.8
2022-11-17T01:06:23.673Z,89.9
2022-11-17T01:07:40.778Z,89.9
2022-11-17T01:08:57.883Z,89.8
2022-11-17T01:10:14.988Z,89.9
2022-11-17T01:11:31.114Z,89.7
2022-11-17T01:12:47.234Z,89.5
2022-11-17T01:14:04.339Z,89.5
2022-11-17T01:15:20.465Z,89.7
2022-11-17T01:16:36.586Z,89.7
2022-11-17T01:17:53.690Z,89.6
2022-11-17T01:19:10.795Z,89.5
2022-11-17T01:20:27.900Z,89.6
2022-11-17T01:21:45.004Z,89.6
2022-11-17T01:23:02.109Z,89.4
2022-11-17T01:24:19.214Z,89.1
2022-11-17T01:25:36.319Z,88.9
2022-11-17T01:26:53.423Z,89.1
2022-11-17T01:28:10.528Z,88.9
2022-11-17T01:29:27.633Z,89.1
2022-11-17T01:30:44.737Z,89.1
2022-11-17T01:32:01.842Z,89.1
2022-11-17T01:33:17.963Z,88.9
2022-11-17T01:34:35.067Z,88.6
2022-11-17T01:35:52.172Z,88.8
2022-11-17T01:37:09.277Z,88.5
2022-11-17T01:38:26.381Z,88.4
2022-11-17T01:39:43.486Z,88.2
2022-11-17T01:41:00.591Z,88.1
2022-11-17T01:42:16.717Z,88
2022-11-17T01:43:32.837Z,88
2022-11-17T01:44:49.942Z,88.1
2022-11-17T01:46:06.068Z,87.9
2022-11-17T01:47:22.189Z,88
2022-11-17T01:48:39.293Z,87.8
2022-11-17T01:49:56.398Z,88
2022-11-17T01:51:13.503Z,87.8
2022-11-17T01:52:30.608Z,87.9
2022-11-17T01:53:47.712Z,87.6
2022-11-17T01:55:04.817Z,87.7
2022-11-17T01:56:21.921Z,87.8
2022-11-17T01:57:39.026Z,87.6
2022-11-17T01:58:56.131Z,87.7
2022-11-17T02:00:13.235Z,87.8
2022-11-17T02:01:30.340Z,87.9
2022-11-17T02:02:47.445Z,88.4
2022-11-17T02:04:03.566Z,88.6
2022-11-17T02:05:20.670Z,89.1
2022-11-17T02:06:37.775Z,89.4
2022-11-17T02:07:54.880Z,89.8
2022-11-17T02:09:11.984Z,90
2022-11-17T02:10:29.089Z,89.6
2022-11-17T02:11:46.193Z,89.7
2022-11-17T02:13:02.319Z,89.7
2022-11-17T02:14:18.440Z,89.4
2022-11-17T02:15:34.561Z,89.8
2022-11-17T02:16:50.687Z,89.9
2022-11-17T02:18:06.808Z,90.1
2022-11-17T02:19:23.913Z,90.1
2022-11-17T02:20:41.017Z,89.9
2022-11-17T02:21:58.122Z,89.4
2022-11-17T02:23:15.227Z,89.8
2022-11-17T02:24:32.331Z,90
2022-11-17T02:25:49.436Z,90.3
2022-11-17T02:27:06.541Z,90.4
2022-11-17T02:28:23.645Z,90.8
2022-11-17T02:29:40.750Z,90.5
2022-11-17T02:30:57.855Z,90.4
2022-11-17T02:32:14.960Z,90.7
2022-11-17T02:33:32.064Z,90.7
2022-11-17T02:34:48.185Z,90.7
2022-11-17T02:36:05.290Z,90.3
2022-11-17T02:37:22.394Z,90.2
2022-11-17T02:38:39.499Z,90.8
2022-11-17T02:39:56.604Z,90.8
2022-11-17T02:41:13.709Z,91.6
2022-11-17T02:42:30.813Z,91.6
2022-11-17T02:43:46.939Z,91.7
2022-11-17T02:45:03.060Z,91.6
2022-11-17T02:46:20.165Z,91.6
2022-11-17T02:47:37.270Z,91.7
2022-11-17T02:48:53.396Z,91.5
2022-11-17T02:50:09.517Z,91.9
2022-11-17T02:51:26.621Z,92.1
2022-11-17T02:52:43.726Z,92
2022-11-17T02:54:00.831Z,91.9
2022-11-17T02:55:17.936Z,92.3
2022-11-17T02:56:35.041Z,92.2
2022-11-17T02:57:52.145Z,92.2
2022-11-17T02:59:09.248Z,92
2022-11-17T03:00:26.353Z,92.4
2022-11-17T03:01:43.458Z,93.1
2022-11-17T03:03:00.562Z,93.6
2022-11-17T03:04:17.667Z,93.6
2022-11-17T03:05:34.772Z,94
2022-11-17T03:06:50.893Z,94
2022-11-17T03:08:07.998Z,93.8
2022-11-17T03:09:25.104Z,93.8
2022-11-17T03:10:42.209Z,93.5
2022-11-17T03:11:59.313Z,93.2
2022-11-17T03:13:16.418Z,93.2
2022-11-17T03:14:33.523Z,93.3
2022-11-17T03:15:49.649Z,93.3
2022-11-17T03:17:05.770Z,93.1
2022-11-17T03:18:22.874Z,92.8
2022-11-17T03:19:39.001Z,92.8
2022-11-17T03:20:55.122Z,93.1
2022-11-17T03:22:12.226Z,92.7
2022-11-17T03:23:29.331Z,92.4
2022-11-17T03:24:46.436Z,92.5
2022-11-17T03:26:03.541Z,92.7
2022-11-17T03:27:20.645Z,93.1
2022-11-17T03:28:37.750Z,92.6
2022-11-17T03:29:54.855Z,92.4
2022-11-17T03:31:11.960Z,92.5
2022-11-17T03:32:29.064Z,92.2
2022-11-17T03:33:46.169Z,92.5
2022-11-17T03:35:03.274Z,92.2
2022-11-17T03:36:20.379Z,92.2
2022-11-17T03:37:36.500Z,91.8
2022-11-17T03:38:53.605Z,91.8
2022-11-17T03:40:10.709Z,91.3
2022-11-17T03:41:27.814Z,91.2
2022-11-17T03:42:44.919Z,91.4
2022-11-17T03:44:02.024Z,90.9
2022-11-17T03:45:19.129Z,90.9
2022-11-17T03:46:35.255Z,91
2022-11-17T03:47:51.376Z,91
2022-11-17T03:49:07.502Z,91.1
2022-11-17T03:50:23.623Z,90.9
2022-11-17T03:51:40.728Z,91
2022-11-17T03:52:57.832Z,91.1
2022-11-17T03:54:14.937Z,91.1
2022-11-17T03:55:32.042Z,91.4
2022-11-17T03:56:49.147Z,91.3
2022-11-17T03:58:06.251Z,90.9
2022-11-17T03:59:23.356Z,91.1
2022-11-17T04:00:40.461Z,91.3
2022-11-17T04:01:57.567Z,91.2
2022-11-17T04:03:14.672Z,91.3
2022-11-17T04:04:31.777Z,91
2022-11-17T04:05:48.881Z,91
2022-11-17T04:07:05.002Z,90.8
2022-11-17T04:08:22.107Z,90.4
2022-11-17T04:09:39.212Z,90.8
2022-11-17T04:10:56.316Z,90.8
2022-11-17T04:12:13.421Z,90.7
2022-11-17T04:13:30.526Z,90.6
2022-11-17T04:14:47.631Z,90.4
2022-11-17T04:16:03.757Z,90.8
2022-11-17T04:17:19.878Z,90.5
2022-11-17T04:18:36.983Z,90.2
2022-11-17T04:19:53.109Z,90.4
2022-11-17T04:21:09.230Z,90.9
2022-11-17T04:22:26.334Z,91
2022-11-17T04:23:43.439Z,90.7
2022-11-17T04:25:00.544Z,90.6
2022-11-17T04:26:17.649Z,90.4
2022-11-17T04:27:34.754Z,89.7
2022-11-17T04:28:51.858Z,89.8
2022-11-17T04:30:08.963Z,90.2
2022-11-17T04:31:26.068Z,90.1
2022-11-17T04:32:43.173Z,90.1
2022-11-17T04:34:00.277Z,90
2022-11-17T04:35:17.382Z,90.1
2022-11-17T04:36:34.487Z,90.1
2022-11-17T04:37:50.608Z,90.4
2022-11-17T04:39:07.713Z,90.3
2022-11-17T04:40:24.817Z,90.6
2022-11-17T04:41:41.922Z,90.6
2022-11-17T04:42:59.027Z,90.6
2022-11-17T04:44:16.132Z,90.7
2022-11-17T04:45:33.236Z,90.4
2022-11-17T04:46:49.362Z,90.2
2022-11-17T04:48:05.483Z,89.9
2022-11-17T04:49:21.609Z,90
2022-11-17T04:50:37.730Z,89.9
2022-11-17T04:51:54.835Z,90
2022-11-17T04:53:11.940Z,89.8
2022-11-17T04:54:29.045Z,90
2022-11-17T04:55:46.150Z,90.2
2022-11-17T04:57:03.254Z,90.1
2022-11-17T04:58:20.359Z,90
2022-11-17T04:59:37.464Z,89.9
2022-11-17T05:00:54.568Z,90
2022-11-17T05:02:11.673Z,89.6
2022-11-17T05:03:28.778Z,89.2
2022-11-17T05:04:45.883Z,88.8
2022-11-17T05:06:02.988Z,89.1
2022-11-17T05:07:19.109Z,89
2022-11-17T05:08:36.213Z,88.6
2022-11-17T05:09:53.318Z,88.8
2022-11-17T05:11:10.423Z,88.7
2022-11-17T05:12:27.527Z,88.9
2022-11-17T05:13:44.632Z,88.7
2022-11-17T05:15:01.737Z,88.8
2022-11-17T05:16:17.863Z,89.2
2022-11-17T05:17:33.984Z,89.3
2022-11-17T05:18:51.089Z,89.5
2022-11-17T05:20:08.194Z,89.5
2022-11-17T05:21:25.298Z,89.3
2022-11-17T05:22:41.424Z,89.7
2022-11-17T05:23:57.545Z,89.5
2022-11-17T05:25:14.650Z,89.9
2022-11-17T05:26:31.755Z,90
2022-11-17T05:27:48.859Z,89.9
2022-11-17T05:29:05.964Z,89.6
2022-11-17T05:30:23.069Z,89.3
2022-11-17T05:31:40.174Z,89.1
2022-11-17T05:32:57.279Z,89.3
2022-11-17T05:34:14.383Z,89.5
2022-11-17T05:35:31.488Z,89.5
2022-11-17T05:36:48.593Z,89.3
2022-11-17T05:38:05.697Z,89
2022-11-17T05:39:22.802Z,89
2022-11-17T05:40:38.923Z,89
2022-11-17T05:41:56.027Z,89
2022-11-17T05:43:13.132Z,88.7
2022-11-17T05:44:30.237Z,88.8
2022-11-17T05:45:47.342Z,88.6
2022-11-17T05:47:04.446Z,88.5
2022-11-17T05:48:21.551Z,88.6
2022-11-17T05:49:37.677Z,88.5
2022-11-17T05:50:53.798Z,88.7
2022-11-17T05:52:09.924Z,88.8
2022-11-17T05:53:26.045Z,88.9
2022-11-17T05:54:43.150Z,89.1
2022-11-17T05:56:00.254Z,89
2022-11-17T05:57:17.359Z,89.3
2022-11-17T05:58:34.464Z,89.2
2022-11-17T05:59:51.569Z,89
2022-11-17T06:01:08.673Z,89
2022-11-17T06:02:25.778Z,88.8
2022-11-17T06:03:42.883Z,89.1
2022-11-17T06:04:59.987Z,89.1
2022-11-17T06:06:17.092Z,88.7
2022-11-17T06:07:34.197Z,88.3
2022-11-17T06:08:51.302Z,88.3
2022-11-17T06:10:07.423Z,87.9
2022-11-17T06:11:24.527Z,87.8
2022-11-17T06:12:41.632Z,87.8
2022-11-17T06:13:58.737Z,88
2022-11-17T06:15:15.841Z,87.9
2022-11-17T06:16:32.946Z,87.8
2022-11-17T06:17:50.051Z,88.1
2022-11-17T06:19:06.177Z,88.2
2022-11-17T06:20:22.297Z,88.5
2022-11-17T06:21:39.402Z,88.5
2022-11-17T06:22:55.528Z,88.5
2022-11-17T06:24:11.649Z,88.5
2022-11-17T06:25:28.754Z,88.7
2022-11-17T06:26:45.859Z,88.6
2022-11-17T06:28:02.963Z,88.8
2022-11-17T06:29:20.068Z,88.6
2022-11-17T06:30:37.173Z,88.8
2022-11-17T06:31:54.278Z,88.7
2022-11-17T06:33:10.398Z,88.7
2022-11-17T06:34:27.503Z,88.5
2022-11-17T06:35:44.608Z,88.5
2022-11-17T06:37:01.713Z,88.5
2022-11-17T06:38:18.818Z,88.5
2022-11-17T06:39:35.922Z,88.5
2022-11-17T06:40:53.027Z,88
2022-11-17T06:42:10.132Z,87.6
2022-11-17T06:43:27.236Z,87.6
2022-11-17T06:44:44.341Z,87.3
2022-11-17T06:46:01.446Z,87.4
2022-11-17T06:47:18.551Z,87.3
2022-11-17T06:48:35.655Z,87.4
2022-11-17T06:49:51.776Z,87.3
2022-11-17T06:51:08.881Z,87.9
2022-11-17T06:52:25.986Z,88
2022-11-17T06:53:43.090Z,88.3
2022-11-17T06:54:59.216Z,88.2
2022-11-17T06:56:15.337Z,88.4
2022-11-17T06:57:32.442Z,88.7
2022-11-17T06:58:49.546Z,88.9
2022-11-17T07:00:06.651Z,89.2
2022-11-17T07:01:22.777Z,89.3
2022-11-17T07:02:38.898Z,89.2
2022-11-17T07:03:56.003Z,89.2
2022-11-17T07:05:13.107Z,89.3
2022-11-17T07:06:30.212Z,89.3
2022-11-17T07:07:47.317Z,89.4
2022-11-17T07:09:04.422Z,88.8
2022-11-17T07:10:21.526Z,88.7
2022-11-17T07:11:38.631Z,88.6
2022-11-17T07:12:55.736Z,88.4
2022-11-17T07:14:12.841Z,88.3
2022-11-17T07:15:29.945Z,88.6
2022-11-17T07:16:47.050Z,88.6
2022-11-17T07:18:04.154Z,88.7
2022-11-17T07:19:20.275Z,89.3
2022-11-17T07:20:37.380Z,89.5
2022-11-17T07:21:54.485Z,89.7
2022-11-17T07:23:11.589Z,90
2022-11-17T07:24:28.694Z,89.9
2022-11-17T07:25:45.799Z,89.7
2022-11-17T07:27:02.903Z,89.8
2022-11-17T07:28:19.030Z,89.4
2022-11-17T07:29:35.150Z,89.2
2022-11-17T07:30:52.253Z,89
2022-11-17T07:32:09.358Z,88.7
2022-11-17T07:33:25.484Z,88.5
2022-11-17T07:34:41.604Z,88.8
2022-11-17T07:35:58.709Z,89
2022-11-17T07:37:15.814Z,88.9
2022-11-17T07:38:32.918Z,88.6
2022-11-17T07:39:50.023Z,88.6
2022-11-17T07:41:07.128Z,88.4
2022-11-17T07:42:24.233Z,88.5
2022-11-17T07:43:41.337Z,88.3
2022-11-17T07:44:58.442Z,88.2
2022-11-17T07:46:15.546Z,88
2022-11-17T07:47:32.651Z,88.3
2022-11-17T07:48:49.756Z,88.3
2022-11-17T07:50:06.860Z,88
2022-11-17T07:51:22.981Z,87.8
2022-11-17T07:52:40.086Z,87.4
2022-11-17T07:53:57.191Z,87.5
2022-11-17T07:55:14.295Z,87.7
2022-11-17T07:56:31.400Z,87.3
2022-11-17T07:57:48.505Z,87.3
2022-11-17T07:59:05.609Z,87.7
2022-11-17T08:00:21.735Z,87.3
2022-11-17T08:01:37.856Z,87.1
2022-11-17T08:02:54.961Z,87.3
2022-11-17T08:04:11.087Z,87.3
2022-11-17T08:05:27.208Z,87.1
2022-11-17T08:06:44.312Z,87.2
2022-11-17T08:08:01.417Z,87.5
2022-11-17T08:09:18.522Z,87.8
2022-11-17T08:10:35.627Z,88
2022-11-17T08:11:52.731Z,87.9
2022-11-17T08:13:09.836Z,88
2022-11-17T08:14:26.940Z,87.8
2022-11-17T08:15:44.045Z,87.6
2022-11-17T08:17:01.150Z,87.7
2022-11-17T08:18:18.255Z,87.4
2022-11-17T08:19:35.359Z,87
2022-11-17T08:20:52.464Z,87
2022-11-17T08:22:08.584Z,86.8
2022-11-17T08:23:25.689Z,86.5
2022-11-17T08:24:42.794Z,86.5
2022-11-17T08:25:59.898Z,85
2022-11-17T08:27:17.003Z,85
2022-11-17T08:28:34.107Z,85.1
2022-11-17T08:29:51.212Z,85.2
2022-11-17T08:31:07.338Z,85.5
2022-11-17T08:32:23.459Z,86
2022-11-17T08:33:40.563Z,85.6
2022-11-17T08:34:56.689Z,85.8
2022-11-17T08:36:12.810Z,85.9
2022-11-17T08:37:29.915Z,85.8
2022-11-17T08:38:47.019Z,85.8
2022-11-17T08:40:04.124Z,86
2022-11-17T08:41:21.228Z,86.2
2022-11-17T08:42:38.333Z,86
2022-11-17T08:43:55.439Z,86
2022-11-17T08:45:12.544Z,86
2022-11-17T08:46:29.648Z,86
2022-11-17T08:47:46.753Z,85.8
2022-11-17T08:49:03.858Z,86.2
2022-11-17T08:50:20.962Z,86.1
2022-11-17T08:51:38.067Z,86.4
2022-11-17T08:52:54.188Z,86.5
2022-11-17T08:54:11.292Z,86.7
2022-11-17T08:55:28.397Z,86.7
2022-11-17T08:56:45.502Z,86.5
2022-11-17T08:58:02.607Z,86.2
2022-11-17T08:59:19.712Z,86.4
2022-11-17T09:00:36.816Z,86.4
2022-11-17T09:01:52.942Z,86.7
2022-11-17T09:03:09.063Z,86.8
2022-11-17T09:04:25.189Z,86.9
2022-11-17T09:05:41.310Z,86.9
2022-11-17T09:06:58.415Z,86.6
2022-11-17T09:08:15.520Z,86.7
2022-11-17T09:09:32.624Z,86.2
2022-11-17T09:10:49.729Z,86.1
2022-11-17T09:12:06.834Z,86
2022-11-17T09:13:23.939Z,85.7
2022-11-17T09:14:41.043Z,85.5
2022-11-17T09:15:58.148Z,85.1
2022-11-17T09:17:15.253Z,85
2022-11-17T09:18:32.357Z,85.1
2022-11-17T09:19:49.462Z,85
2022-11-17T09:21:06.567Z,84.7
2022-11-17T09:22:22.687Z,84.3
2022-11-17T09:23:39.792Z,84.7
2022-11-17T09:24:56.897Z,84.4
2022-11-17T09:26:14.001Z,84.5
2022-11-17T09:27:31.106Z,84.4
2022-11-17T09:28:48.212Z,84.4
2022-11-17T09:30:05.316Z,84.4
2022-11-17T09:31:21.442Z,84.8
2022-11-17T09:32:37.563Z,85
2022-11-17T09:33:54.667Z,85
2022-11-17T09:35:11.772Z,85.3
2022-11-17T09:36:28.877Z,85.2
2022-11-17T09:37:45.002Z,85.4
2022-11-17T09:39:01.123Z,84.8
2022-11-17T09:40:18.228Z,85
2022-11-17T09:41:35.332Z,85.4
2022-11-17T09:42:52.437Z,84.8
2022-11-17T09:44:09.541Z,85
2022-11-17T09:45:26.646Z,84.5
2022-11-17T09:46:43.750Z,84.5
2022-11-17T09:48:00.855Z,83.9
2022-11-17T09:49:17.959Z,84.1
2022-11-17T09:50:35.064Z,83.7
2022-11-17T09:51:52.168Z,83.7
2022-11-17T09:53:09.273Z,83.7
2022-11-17T09:54:26.377Z,83.5
2022-11-17T09:55:42.497Z,83.5
2022-11-17T09:56:59.602Z,83.3
2022-11-17T09:58:16.706Z,83.1
2022-11-17T09:59:33.811Z,82.7
2022-11-17T10:00:50.915Z,82.8
2022-11-17T10:02:08.020Z,82.9
2022-11-17T10:03:25.124Z,82.9
2022-11-17T10:04:41.250Z,82.6
2022-11-17T10:05:57.370Z,82.8
2022-11-17T10:07:13.496Z,82.9
2022-11-17T10:08:29.616Z,83
2022-11-17T10:09:46.721Z,82.3
2022-11-17T10:11:03.825Z,82.3
2022-11-17T10:12:20.930Z,82.2
2022-11-17T10:13:38.034Z,82.4
2022-11-17T10:14:55.139Z,80.8
2022-11-17T10:16:12.244Z,80.8
2022-11-17T10:17:29.348Z,80.5
2022-11-17T10:18:46.453Z,80.8
2022-11-17T10:20:03.557Z,80.1
2022-11-17T10:21:20.661Z,80.1
2022-11-17T10:22:37.766Z,79.8
2022-11-17T10:23:54.870Z,80.1
2022-11-17T10:25:10.990Z,80
2022-11-17T10:26:28.095Z,80.7
2022-11-17T10:27:45.200Z,80.7
2022-11-17T10:29:02.304Z,80.5
2022-11-17T10:30:19.409Z,80.5
2022-11-17T10:31:36.513Z,80.1
2022-11-17T10:32:53.617Z,80.8
2022-11-17T10:34:10.864Z,80.2
2022-11-17T10:35:26.984Z,79.5
2022-11-17T10:36:43.110Z,79.9
2022-11-17T10:37:59.230Z,79.9
2022-11-17T10:39:16.335Z,79.9
2022-11-17T10:40:33.439Z,80.4
2022-11-17T10:41:50.544Z,80.4
2022-11-17T10:43:07.648Z,80.3
2022-11-17T10:44:24.753Z,80.3
2022-11-17T10:45:41.857Z,80.2
2022-11-17T10:46:58.961Z,80.4
2022-11-17T10:48:16.066Z,80.6
2022-11-17T10:49:33.170Z,80.6
2022-11-17T10:50:49.291Z,81.1
2022-11-17T10:52:06.395Z,80.7
2022-11-17T10:53:23.500Z,80.9
2022-11-17T10:54:40.605Z,80.1
2022-11-17T10:55:57.709Z,80.6
2022-11-17T10:57:14.814Z,80.5
2022-11-17T10:58:31.918Z,80.4
2022-11-17T10:59:49.023Z,80.2
2022-11-17T11:01:06.127Z,80.4
2022-11-17T11:02:23.231Z,80.1
2022-11-17T11:03:39.357Z,80.2
2022-11-17T11:04:55.477Z,80.6
2022-11-17T11:06:12.582Z,79.5
2022-11-17T11:07:29.686Z,79.7
2022-11-17T11:08:46.791Z,78.7
2022-11-17T11:10:02.917Z,78
2022-11-17T11:11:19.037Z,78.3
2022-11-17T11:12:36.142Z,78.3
2022-11-17T11:13:53.246Z,77.8
2022-11-17T11:15:10.350Z,77.6
2022-11-17T11:16:27.455Z,77.5
2022-11-17T11:17:44.559Z,76.8
2022-11-17T11:19:01.663Z,75.2
2022-11-17T11:20:18.768Z,75.9
2022-11-17T11:21:35.872Z,75.5
2022-11-17T11:22:52.977Z,76.1
2022-11-17T11:24:10.082Z,74.7
2022-11-17T11:25:27.187Z,74
2022-11-17T11:26:44.292Z,74.6
2022-11-17T11:28:00.412Z,74.7
2022-11-17T11:29:17.517Z,74.3
2022-11-17T11:30:34.622Z,74
2022-11-17T11:31:51.727Z,73.9
2022-11-17T11:33:08.831Z,73.8
2022-11-17T11:34:25.936Z,73.3
2022-11-17T11:35:43.041Z,73
2022-11-17T11:36:59.167Z,73.5
2022-11-17T11:38:15.288Z,74.1
2022-11-17T11:39:31.413Z,74.1
2022-11-17T11:40:47.534Z,74.3
2022-11-17T11:42:04.638Z,74.1
2022-11-17T11:43:21.743Z,74.5
2022-11-17T11:44:38.847Z,74.1
2022-11-17T11:45:55.952Z,73.9
2022-11-17T11:47:13.057Z,75
2022-11-17T11:48:30.162Z,75.8
2022-11-17T11:49:47.266Z,76
2022-11-17T11:51:04.371Z,75.1
2022-11-17T11:52:21.475Z,75.6
2022-11-17T11:53:38.580Z,76.3
2022-11-17T11:54:55.684Z,75.9
2022-11-17T11:56:12.789Z,75.9
2022-11-17T11:57:28.909Z,75.4
2022-11-17T11:58:46.014Z,75.2
2022-11-17T12:00:03.119Z,75.4
2022-11-17T12:01:20.223Z,75.1
2022-11-17T12:02:37.328Z,74.1
2022-11-17T12:03:54.433Z,74.6
2022-11-17T12:05:11.537Z,74.4
2022-11-17T12:06:27.663Z,74
2022-11-17T12:07:43.784Z,74.1
2022-11-17T12:09:00.888Z,73.3
2022-11-17T12:10:17.014Z,73.4
2022-11-17T12:11:33.135Z,73.6
2022-11-17T12:12:50.239Z,73.8
2022-11-17T12:14:07.344Z,73
2022-11-17T12:15:24.449Z,73.5
2022-11-17T12:16:41.553Z,74
2022-11-17T12:17:58.658Z,73.4
2022-11-17T12:19:15.763Z,72.8
2022-11-17T12:20:32.867Z,73.4
2022-11-17T12:21:49.972Z,73.4
2022-11-17T12:23:07.076Z,73.9
2022-11-17T12:24:24.181Z,73.9
2022-11-17T12:25:41.286Z,74.9
2022-11-17T12:26:58.390Z,74.9
2022-11-17T12:28:14.511Z,75.4
2022-11-17T12:29:31.615Z,75.5
2022-11-17T12:30:48.720Z,75.7
2022-11-17T12:32:05.824Z,75.6
2022-11-17T12:33:22.928Z,76.6
2022-11-17T12:34:40.033Z,77
2022-11-17T12:35:57.137Z,77
2022-11-17T12:37:13.263Z,77.7
2022-11-17T12:38:30.367Z,77
2022-11-17T12:39:46.493Z,76.8
2022-11-17T12:41:02.614Z,76.8
2022-11-17T12:42:19.718Z,76.2
2022-11-17T12:43:36.822Z,75.6
2022-11-17T12:44:53.926Z,75.6
2022-11-17T12:46:11.031Z,75.6
2022-11-17T12:47:28.135Z,75.6
2022-11-17T12:48:45.239Z,75.7
2022-11-17T12:50:02.344Z,75.3
2022-11-17T12:51:19.448Z,74.5
2022-11-17T12:52:36.553Z,75.3
2022-11-17T12:53:53.657Z,74.7
2022-11-17T12:55:10.761Z,75.3
2022-11-17T12:56:27.866Z,75.2
2022-11-17T12:57:43.986Z,74.3
2022-11-17T12:59:01.090Z,74.3
2022-11-17T13:00:18.195Z,73.8
2022-11-17T13:01:35.299Z,73.7
2022-11-17T13:02:52.404Z,73.7
2022-11-17T13:04:09.508Z,73.4
2022-11-17T13:05:26.612Z,73.4
2022-11-17T13:06:42.738Z,73.6
2022-11-17T13:07:58.858Z,73
2022-11-17T13:09:15.963Z,73.8
2022-11-17T13:10:33.067Z,73.5
2022-11-17T13:11:49.193Z,73.6
2022-11-17T13:13:05.313Z,73.9
2022-11-17T13:14:22.418Z,73
2022-11-17T13:15:39.522Z,73.7
2022-11-17T13:16:56.627Z,72.9
2022-11-17T13:18:13.731Z,73.1
2022-11-17T13:19:30.836Z,72.9
2022-11-17T13:20:47.941Z,73.3
2022-11-17T13:22:05.045Z,73.4
2022-11-17T13:23:22.150Z,72.7
2022-11-17T13:24:39.254Z,72.5
2022-11-17T13:25:56.360Z,72.7
2022-11-17T13:27:13.465Z,73
2022-11-17T13:28:30.569Z,73.2
2022-11-17T13:29:46.690Z,73.2
2022-11-17T13:31:03.794Z,73.5
2022-11-17T13:32:20.899Z,73.4
2022-11-17T13:33:38.004Z,73.5
2022-11-17T13:34:55.108Z,74
2022-11-17T13:36:12.212Z,73.8
2022-11-17T13:37:29.317Z,73.5
2022-11-17T13:38:45.443Z,72.8
2022-11-17T13:40:01.563Z,72.7
2022-11-17T13:41:18.668Z,73.5
2022-11-17T13:42:34.794Z,73.6
2022-11-17T13:43:50.915Z,73
2022-11-17T13:45:08.019Z,73.4
2022-11-17T13:46:25.124Z,73
2022-11-17T13:47:42.228Z,72.8
2022-11-17T13:48:59.333Z,73.2
2022-11-17T13:50:16.438Z,73.4
2022-11-17T13:51:33.542Z,72.7
2022-11-17T13:52:50.645Z,73
2022-11-17T13:54:07.750Z,73.2
2022-11-17T13:55:24.855Z,72.4
2022-11-17T13:56:41.959Z,72.8
2022-11-17T13:57:59.064Z,72.5
2022-11-17T13:59:16.168Z,72.7
2022-11-17T14:00:32.289Z,72.9
2022-11-17T14:01:49.393Z,72.8
2022-11-17T14:03:06.497Z,73.5
2022-11-17T14:04:23.602Z,73.3
2022-11-17T14:05:40.707Z,73
2022-11-17T14:06:57.811Z,73.5
2022-11-17T14:08:14.915Z,73.8
2022-11-17T14:09:31.041Z,74
2022-11-17T14:10:47.162Z,74.5
2022-11-17T14:12:03.288Z,74
2022-11-17T14:13:19.408Z,73.5
2022-11-17T14:14:36.512Z,73.4
2022-11-17T14:15:53.617Z,73.6
2022-11-17T14:17:10.721Z,73.6
2022-11-17T14:18:27.825Z,73.8
2022-11-17T14:19:44.930Z,73.9
2022-11-17T14:21:02.035Z,74.1
2022-11-17T14:22:19.139Z,74.3
2022-11-17T14:23:36.243Z,73.7
2022-11-17T14:24:53.348Z,73.8
2022-11-17T14:26:10.452Z,73.6
2022-11-17T14:27:27.556Z,73.7
2022-11-17T14:28:44.661Z,74.2
2022-11-17T14:30:00.781Z,74.3
2022-11-17T14:31:17.886Z,74.1
2022-11-17T14:32:34.990Z,74.3
2022-11-17T14:33:52.094Z,74.6
2022-11-17T14:35:09.199Z,74.5
2022-11-17T14:36:26.303Z,74.4
2022-11-17T14:37:43.407Z,74.6
2022-11-17T14:38:59.533Z,74.5
2022-11-17T14:40:15.654Z,74.5
2022-11-17T14:41:32.758Z,74.5
2022-11-17T14:42:48.884Z,74.4
2022-11-17T14:44:05.004Z,74
2022-11-17T14:45:22.108Z,74.1
2022-11-17T14:46:39.213Z,73.9
2022-11-17T14:47:56.317Z,74.3
2022-11-17T14:49:13.422Z,74.8
2022-11-17T14:50:30.526Z,74.5
2022-11-17T14:51:47.630Z,74.5
2022-11-17T14:53:04.735Z,74.5
2022-11-17T14:54:21.839Z,74.3
2022-11-17T14:55:38.943Z,74.3
2022-11-17T14:56:56.048Z,74.7
2022-11-17T14:58:13.152Z,74.7
2022-11-17T14:59:30.257Z,75.1
2022-11-17T15:00:46.377Z,74.9
2022-11-17T15:02:03.481Z,74.9
2022-11-17T15:03:20.586Z,75.1
2022-11-17T15:04:37.690Z,75.4
2022-11-17T15:05:54.794Z,75.4
2022-11-17T15:07:11.899Z,75.6
2022-11-17T15:08:28.019Z,75.3
2022-11-17T15:09:44.145Z,75.4
2022-11-17T15:11:00.266Z,75.5
2022-11-17T15:12:17.370Z,75.3
2022-11-17T15:13:33.496Z,75.8
2022-11-17T15:14:49.616Z,75.9
2022-11-17T15:16:06.721Z,75.8
2022-11-17T15:17:23.825Z,76.1
2022-11-17T15:18:40.930Z,75.8
2022-11-17T15:19:58.034Z,75.8
2022-11-17T15:21:15.138Z,75.8
2022-11-17T15:22:32.243Z,75.8
2022-11-17T15:23:49.347Z,76.3
2022-11-17T15:25:06.452Z,76.3
2022-11-17T15:26:23.556Z,76.2
2022-11-17T15:27:40.661Z,76.1
2022-11-17T15:28:57.765Z,76.2
2022-11-17T15:30:14.870Z,76.4
2022-11-17T15:31:30.990Z,76.4
2022-11-17T15:32:48.094Z,76.7
2022-11-17T15:34:05.199Z,76.7
2022-11-17T15:35:22.303Z,76.6
2022-11-17T15:36:39.408Z,76.8
2022-11-17T15:37:56.513Z,76.5
2022-11-17T15:39:13.617Z,76.5
2022-11-17T15:40:29.743Z,76.5
2022-11-17T15:41:45.864Z,76.5
2022-11-17T15:43:02.968Z,76.8
2022-11-17T15:44:20.073Z,77
2022-11-17T15:45:36.199Z,77.4
2022-11-17T15:46:52.320Z,77.4
2022-11-17T15:48:09.424Z,77.3
2022-11-17T15:49:26.529Z,77.2
2022-11-17T15:50:43.633Z,77.2
2022-11-17T15:52:00.738Z,77.5
2022-11-17T15:53:17.843Z,77.4
2022-11-17T15:54:34.947Z,77.2
2022-11-17T15:55:52.052Z,77.1
2022-11-17T15:57:09.157Z,77.5
2022-11-17T15:58:26.261Z,77.5
2022-11-17T15:59:43.365Z,77.3
2022-11-17T16:01:00.470Z,77.4
2022-11-17T16:02:17.574Z,77.4
2022-11-17T16:03:33.695Z,77.5
2022-11-17T16:04:50.800Z,77.4
2022-11-17T16:06:07.905Z,77.5
2022-11-17T16:07:25.009Z,77.8
2022-11-17T16:08:42.114Z,77.6
2022-11-17T16:09:59.218Z,77.6
2022-11-17T16:11:16.323Z,77.8
2022-11-17T16:12:32.449Z,77.8
2022-11-17T16:13:48.569Z,78.2
2022-11-17T16:15:05.674Z,78.4
2022-11-17T16:16:21.800Z,78.6
2022-11-17T16:17:37.921Z,78.6
2022-11-17T16:18:55.025Z,78.5
2022-11-17T16:20:12.130Z,78.6
2022-11-17T16:21:29.235Z,78.6
2022-11-17T16:22:46.340Z,78.7
2022-11-17T16:24:03.445Z,78.8
2022-11-17T16:25:20.549Z,78.8
2022-11-17T16:26:37.654Z,78.9
2022-11-17T16:27:54.759Z,79.1
2022-11-17T16:29:11.863Z,79.3
2022-11-17T16:30:28.968Z,79.3
2022-11-17T16:31:46.073Z,79.6
2022-11-17T16:33:03.178Z,79.7
2022-11-17T16:34:19.299Z,80.3
2022-11-17T16:35:36.403Z,80.6
2022-11-17T16:36:53.508Z,80.4
2022-11-17T16:38:10.613Z,80.4
2022-11-17T16:39:27.718Z,80.7
2022-11-17T16:40:44.822Z,80.6
2022-11-17T16:42:01.927Z,80.6
2022-11-17T16:43:18.053Z,80.7
2022-11-17T16:44:34.174Z,80.8
2022-11-17T16:45:50.300Z,80.7
2022-11-17T16:47:06.421Z,80.7
2022-11-17T16:48:23.525Z,80.7
2022-11-17T16:49:40.630Z,80.8
2022-11-17T16:50:57.734Z,80.9
2022-11-17T16:52:14.839Z,80.9
2022-11-17T16:53:31.944Z,81
2022-11-17T16:54:49.048Z,81.2
2022-11-17T16:56:06.153Z,81.3
2022-11-17T16:57:23.258Z,81.4
2022-11-17T16:58:40.363Z,81.5
2022-11-17T16:59:57.467Z,81.4
2022-11-17T17:01:14.572Z,81.9
2022-11-17T17:02:31.676Z,82
2022-11-17T17:03:47.797Z,82
2022-11-17T17:05:04.902Z,82.2
2022-11-17T17:06:22.007Z,82.2
2022-11-17T17:07:39.112Z,82.3
2022-11-17T17:08:56.217Z,82.6
2022-11-17T17:10:13.322Z,82.5
2022-11-17T17:11:30.426Z,82.6